sensor_id;sensor_type;location;lat;lon;timestamp;P1;durP1;ratioP1;P2;durP2;ratioP2
64140;SDS011;50436;50.618;7.932;2022-07-06T00:01:47;4.85;;;1.40;;
64140;SDS011;50436;50.618;7.932;2022-07-06T00:04:13;5.75;;;1.55;;
64140;SDS011;50436;50.618;7.932;2022-07-06T00:06:39;5.30;;;1.55;;
64140;SDS011;50436;50.618;7.932;2022-07-06T00:09:05;4.93;;;1.50;;
64140;SDS011;50436;50.618;7.932;2022-07-06T00:11:30;6.07;;;1.63;;
64140;SDS011;50436;50.618;7.932;2022-07-06T00:13:56;4.32;;;1.45;;
64140;SDS011;50436;50.618;7.932;2022-07-06T00:16:22;5.35;;;1.45;;
64140;SDS011;50436;50.618;7.932;2022-07-06T00:18:48;4.15;;;1.35;;
64140;SDS011;50436;50.618;7.932;2022-07-06T00:21:14;5.60;;;1.30;;
64140;SDS011;50436;50.618;7.932;2022-07-06T00:23:40;4.15;;;1.42;;
64140;SDS011;50436;50.618;7.932;2022-07-06T00:26:05;4.20;;;1.60;;
64140;SDS011;50436;50.618;7.932;2022-07-06T00:28:31;4.72;;;1.58;;
64140;SDS011;50436;50.618;7.932;2022-07-06T00:30:56;6.57;;;1.60;;
64140;SDS011;50436;50.618;7.932;2022-07-06T00:33:22;5.68;;;1.30;;
64140;SDS011;50436;50.618;7.932;2022-07-06T00:35:48;5.18;;;1.98;;
64140;SDS011;50436;50.618;7.932;2022-07-06T00:38:14;4.70;;;1.40;;
64140;SDS011;50436;50.618;7.932;2022-07-06T00:40:40;8.15;;;1.33;;
64140;SDS011;50436;50.618;7.932;2022-07-06T00:43:06;3.08;;;1.67;;
64140;SDS011;50436;50.618;7.932;2022-07-06T00:45:32;3.45;;;1.50;;
64140;SDS011;50436;50.618;7.932;2022-07-06T00:47:57;4.68;;;1.85;;
64140;SDS011;50436;50.618;7.932;2022-07-06T00:50:23;4.32;;;1.75;;
64140;SDS011;50436;50.618;7.932;2022-07-06T00:52:52;4.82;;;1.35;;
64140;SDS011;50436;50.618;7.932;2022-07-06T00:55:23;5.57;;;1.50;;
64140;SDS011;50436;50.618;7.932;2022-07-06T00:57:51;3.55;;;1.25;;
64140;SDS011;50436;50.618;7.932;2022-07-06T01:00:18;6.95;;;1.50;;
64140;SDS011;50436;50.618;7.932;2022-07-06T01:02:45;5.18;;;2.67;;
64140;SDS011;50436;50.618;7.932;2022-07-06T01:05:11;5.63;;;1.73;;
64140;SDS011;50436;50.618;7.932;2022-07-06T01:07:39;3.65;;;1.40;;
64140;SDS011;50436;50.618;7.932;2022-07-06T01:10:07;4.78;;;1.70;;
64140;SDS011;50436;50.618;7.932;2022-07-06T01:12:34;3.83;;;1.52;;
64140;SDS011;50436;50.618;7.932;2022-07-06T01:15:02;5.25;;;1.60;;
64140;SDS011;50436;50.618;7.932;2022-07-06T01:17:28;5.45;;;1.30;;
64140;SDS011;50436;50.618;7.932;2022-07-06T01:19:55;6.32;;;2.00;;
64140;SDS011;50436;50.618;7.932;2022-07-06T01:22:20;3.78;;;1.30;;
64140;SDS011;50436;50.618;7.932;2022-07-06T01:24:46;2.90;;;1.20;;
64140;SDS011;50436;50.618;7.932;2022-07-06T01:27:11;2.90;;;1.40;;
64140;SDS011;50436;50.618;7.932;2022-07-06T01:29:37;4.40;;;1.50;;
64140;SDS011;50436;50.618;7.932;2022-07-06T01:32:02;3.97;;;1.38;;
64140;SDS011;50436;50.618;7.932;2022-07-06T01:34:28;5.13;;;1.50;;
64140;SDS011;50436;50.618;7.932;2022-07-06T01:36:54;6.53;;;1.50;;
64140;SDS011;50436;50.618;7.932;2022-07-06T01:39:19;4.35;;;1.50;;
64140;SDS011;50436;50.618;7.932;2022-07-06T01:41:45;4.45;;;1.50;;
64140;SDS011;50436;50.618;7.932;2022-07-06T01:44:10;6.32;;;1.67;;
64140;SDS011;50436;50.618;7.932;2022-07-06T01:46:37;5.38;;;1.40;;
64140;SDS011;50436;50.618;7.932;2022-07-06T01:49:03;6.53;;;1.88;;
64140;SDS011;50436;50.618;7.932;2022-07-06T01:51:30;4.80;;;1.50;;
64140;SDS011;50436;50.618;7.932;2022-07-06T01:54:00;7.15;;;1.55;;
64140;SDS011;50436;50.618;7.932;2022-07-06T01:56:26;5.95;;;1.55;;
64140;SDS011;50436;50.618;7.932;2022-07-06T01:58:56;7.95;;;1.77;;
64140;SDS011;50436;50.618;7.932;2022-07-06T02:01:22;5.07;;;1.60;;
64140;SDS011;50436;50.618;7.932;2022-07-06T02:03:48;4.38;;;1.50;;
64140;SDS011;50436;50.618;7.932;2022-07-06T02:06:14;6.28;;;1.77;;
64140;SDS011;50436;50.618;7.932;2022-07-06T02:08:40;6.38;;;1.95;;
64140;SDS011;50436;50.618;7.932;2022-07-06T02:11:07;3.53;;;1.55;;
64140;SDS011;50436;50.618;7.932;2022-07-06T02:13:36;5.45;;;1.63;;
64140;SDS011;50436;50.618;7.932;2022-07-06T02:16:04;6.22;;;2.17;;
64140;SDS011;50436;50.618;7.932;2022-07-06T02:18:30;3.75;;;1.67;;
64140;SDS011;50436;50.618;7.932;2022-07-06T02:20:56;5.57;;;1.73;;
64140;SDS011;50436;50.618;7.932;2022-07-06T02:23:21;5.22;;;1.63;;
64140;SDS011;50436;50.618;7.932;2022-07-06T02:25:49;4.72;;;1.55;;
64140;SDS011;50436;50.618;7.932;2022-07-06T02:28:14;4.68;;;1.65;;
64140;SDS011;50436;50.618;7.932;2022-07-06T02:30:40;4.95;;;1.70;;
64140;SDS011;50436;50.618;7.932;2022-07-06T02:33:05;4.18;;;1.90;;
64140;SDS011;50436;50.618;7.932;2022-07-06T02:35:31;4.05;;;1.67;;
64140;SDS011;50436;50.618;7.932;2022-07-06T02:37:57;5.28;;;1.60;;
64140;SDS011;50436;50.618;7.932;2022-07-06T02:40:22;4.43;;;1.70;;
64140;SDS011;50436;50.618;7.932;2022-07-06T02:42:48;5.03;;;2.20;;
64140;SDS011;50436;50.618;7.932;2022-07-06T02:45:13;4.32;;;1.77;;
64140;SDS011;50436;50.618;7.932;2022-07-06T02:47:40;5.43;;;2.28;;
64140;SDS011;50436;50.618;7.932;2022-07-06T02:50:07;6.55;;;2.15;;
64140;SDS011;50436;50.618;7.932;2022-07-06T02:52:33;7.35;;;2.08;;
64140;SDS011;50436;50.618;7.932;2022-07-06T02:55:00;7.25;;;1.95;;
64140;SDS011;50436;50.618;7.932;2022-07-06T02:57:26;3.88;;;2.10;;
64140;SDS011;50436;50.618;7.932;2022-07-06T02:59:52;7.05;;;2.25;;
64140;SDS011;50436;50.618;7.932;2022-07-06T03:02:18;11.30;;;2.50;;
64140;SDS011;50436;50.618;7.932;2022-07-06T03:04:44;6.25;;;2.67;;
64140;SDS011;50436;50.618;7.932;2022-07-06T03:07:10;5.32;;;2.22;;
64140;SDS011;50436;50.618;7.932;2022-07-06T03:09:38;5.15;;;2.60;;
64140;SDS011;50436;50.618;7.932;2022-07-06T03:12:03;6.13;;;2.60;;
64140;SDS011;50436;50.618;7.932;2022-07-06T03:14:31;7.70;;;2.60;;
64140;SDS011;50436;50.618;7.932;2022-07-06T03:16:57;4.70;;;2.58;;
64140;SDS011;50436;50.618;7.932;2022-07-06T03:19:22;5.82;;;2.63;;
64140;SDS011;50436;50.618;7.932;2022-07-06T03:21:48;6.72;;;2.63;;
64140;SDS011;50436;50.618;7.932;2022-07-06T03:24:14;8.75;;;3.00;;
64140;SDS011;50436;50.618;7.932;2022-07-06T03:26:40;6.03;;;2.90;;
64140;SDS011;50436;50.618;7.932;2022-07-06T03:29:05;6.50;;;2.90;;
64140;SDS011;50436;50.618;7.932;2022-07-06T03:31:31;8.57;;;2.70;;
64140;SDS011;50436;50.618;7.932;2022-07-06T03:33:57;7.25;;;2.67;;
64140;SDS011;50436;50.618;7.932;2022-07-06T03:36:22;7.70;;;3.08;;
64140;SDS011;50436;50.618;7.932;2022-07-06T03:38:48;5.90;;;2.47;;
64140;SDS011;50436;50.618;7.932;2022-07-06T03:41:14;8.02;;;2.45;;
64140;SDS011;50436;50.618;7.932;2022-07-06T03:43:40;5.55;;;2.55;;
64140;SDS011;50436;50.618;7.932;2022-07-06T03:46:06;6.20;;;2.47;;
64140;SDS011;50436;50.618;7.932;2022-07-06T03:48:32;9.13;;;2.80;;
64140;SDS011;50436;50.618;7.932;2022-07-06T03:50:58;8.13;;;2.42;;
64140;SDS011;50436;50.618;7.932;2022-07-06T03:53:23;6.60;;;2.70;;
64140;SDS011;50436;50.618;7.932;2022-07-06T03:55:49;5.53;;;2.60;;
64140;SDS011;50436;50.618;7.932;2022-07-06T03:58:34;5.32;;;2.47;;
64140;SDS011;50436;50.618;7.932;2022-07-06T04:01:00;6.70;;;2.33;;
64140;SDS011;50436;50.618;7.932;2022-07-06T04:03:25;6.95;;;2.60;;
64140;SDS011;50436;50.618;7.932;2022-07-06T04:05:52;8.60;;;2.50;;
64140;SDS011;50436;50.618;7.932;2022-07-06T04:08:18;11.23;;;2.70;;
64140;SDS011;50436;50.618;7.932;2022-07-06T04:10:50;7.97;;;2.60;;
64140;SDS011;50436;50.618;7.932;2022-07-06T04:13:16;7.82;;;2.60;;
64140;SDS011;50436;50.618;7.932;2022-07-06T04:15:41;5.15;;;2.00;;
64140;SDS011;50436;50.618;7.932;2022-07-06T04:18:07;6.35;;;2.30;;
64140;SDS011;50436;50.618;7.932;2022-07-06T04:20:39;8.10;;;2.63;;
64140;SDS011;50436;50.618;7.932;2022-07-06T04:23:05;6.18;;;2.58;;
64140;SDS011;50436;50.618;7.932;2022-07-06T04:25:31;6.18;;;2.40;;
64140;SDS011;50436;50.618;7.932;2022-07-06T04:27:59;6.15;;;2.58;;
64140;SDS011;50436;50.618;7.932;2022-07-06T04:30:26;6.40;;;2.40;;
64140;SDS011;50436;50.618;7.932;2022-07-06T04:32:52;6.28;;;2.83;;
64140;SDS011;50436;50.618;7.932;2022-07-06T04:35:18;6.90;;;2.55;;
64140;SDS011;50436;50.618;7.932;2022-07-06T04:37:45;5.70;;;2.38;;
64140;SDS011;50436;50.618;7.932;2022-07-06T04:40:16;8.77;;;2.63;;
64140;SDS011;50436;50.618;7.932;2022-07-06T04:42:41;10.38;;;2.97;;
64140;SDS011;50436;50.618;7.932;2022-07-06T04:45:07;9.88;;;2.47;;
64140;SDS011;50436;50.618;7.932;2022-07-06T04:47:33;6.07;;;2.47;;
64140;SDS011;50436;50.618;7.932;2022-07-06T04:50:00;6.45;;;2.70;;
64140;SDS011;50436;50.618;7.932;2022-07-06T04:52:25;9.88;;;2.72;;
64140;SDS011;50436;50.618;7.932;2022-07-06T04:54:51;5.75;;;2.60;;
64140;SDS011;50436;50.618;7.932;2022-07-06T04:57:16;9.50;;;2.63;;
64140;SDS011;50436;50.618;7.932;2022-07-06T04:59:42;7.90;;;2.78;;
64140;SDS011;50436;50.618;7.932;2022-07-06T05:02:08;9.63;;;2.95;;
64140;SDS011;50436;50.618;7.932;2022-07-06T05:04:34;6.90;;;2.88;;
64140;SDS011;50436;50.618;7.932;2022-07-06T05:07:03;5.82;;;2.58;;
64140;SDS011;50436;50.618;7.932;2022-07-06T05:09:29;7.45;;;2.72;;
64140;SDS011;50436;50.618;7.932;2022-07-06T05:11:55;5.38;;;2.53;;
64140;SDS011;50436;50.618;7.932;2022-07-06T05:14:21;7.13;;;2.80;;
64140;SDS011;50436;50.618;7.932;2022-07-06T05:16:47;6.97;;;2.78;;
64140;SDS011;50436;50.618;7.932;2022-07-06T05:19:13;8.75;;;2.50;;
64140;SDS011;50436;50.618;7.932;2022-07-06T05:21:39;7.63;;;2.60;;
64140;SDS011;50436;50.618;7.932;2022-07-06T05:24:06;6.85;;;2.70;;
64140;SDS011;50436;50.618;7.932;2022-07-06T05:26:32;5.18;;;2.60;;
64140;SDS011;50436;50.618;7.932;2022-07-06T05:28:58;7.57;;;3.00;;
64140;SDS011;50436;50.618;7.932;2022-07-06T05:31:23;5.05;;;2.92;;
64140;SDS011;50436;50.618;7.932;2022-07-06T05:33:49;7.07;;;2.70;;
64140;SDS011;50436;50.618;7.932;2022-07-06T05:36:14;12.98;;;2.90;;
64140;SDS011;50436;50.618;7.932;2022-07-06T05:38:40;10.35;;;2.90;;
64140;SDS011;50436;50.618;7.932;2022-07-06T05:41:06;8.13;;;3.08;;
64140;SDS011;50436;50.618;7.932;2022-07-06T05:43:34;7.72;;;3.00;;
64140;SDS011;50436;50.618;7.932;2022-07-06T05:46:01;8.27;;;2.72;;
64140;SDS011;50436;50.618;7.932;2022-07-06T05:48:29;6.18;;;2.88;;
64140;SDS011;50436;50.618;7.932;2022-07-06T05:51:13;6.30;;;2.85;;
64140;SDS011;50436;50.618;7.932;2022-07-06T05:53:41;6.80;;;2.83;;
64140;SDS011;50436;50.618;7.932;2022-07-06T05:56:07;7.57;;;2.50;;
64140;SDS011;50436;50.618;7.932;2022-07-06T05:58:33;5.32;;;2.85;;
64140;SDS011;50436;50.618;7.932;2022-07-06T06:00:59;7.15;;;2.60;;
64140;SDS011;50436;50.618;7.932;2022-07-06T06:03:25;9.80;;;2.90;;
64140;SDS011;50436;50.618;7.932;2022-07-06T06:05:50;10.60;;;3.13;;
64140;SDS011;50436;50.618;7.932;2022-07-06T06:08:18;5.07;;;2.78;;
64140;SDS011;50436;50.618;7.932;2022-07-06T06:10:44;10.45;;;3.05;;
64140;SDS011;50436;50.618;7.932;2022-07-06T06:13:13;4.82;;;2.38;;
64140;SDS011;50436;50.618;7.932;2022-07-06T06:15:39;7.28;;;3.00;;
64140;SDS011;50436;50.618;7.932;2022-07-06T06:18:05;6.75;;;2.95;;
64140;SDS011;50436;50.618;7.932;2022-07-06T06:20:31;6.70;;;2.63;;
64140;SDS011;50436;50.618;7.932;2022-07-06T06:22:57;7.80;;;2.53;;
64140;SDS011;50436;50.618;7.932;2022-07-06T06:25:27;8.00;;;2.80;;
64140;SDS011;50436;50.618;7.932;2022-07-06T06:28:01;5.78;;;2.80;;
64140;SDS011;50436;50.618;7.932;2022-07-06T06:30:29;11.23;;;2.70;;
64140;SDS011;50436;50.618;7.932;2022-07-06T06:33:08;5.88;;;2.50;;
64140;SDS011;50436;50.618;7.932;2022-07-06T06:35:42;5.28;;;2.30;;
64140;SDS011;50436;50.618;7.932;2022-07-06T06:38:12;4.40;;;2.08;;
64140;SDS011;50436;50.618;7.932;2022-07-06T06:40:38;6.10;;;2.45;;
64140;SDS011;50436;50.618;7.932;2022-07-06T06:43:04;5.63;;;2.30;;
64140;SDS011;50436;50.618;7.932;2022-07-06T06:45:31;5.38;;;2.20;;
64140;SDS011;50436;50.618;7.932;2022-07-06T06:47:56;6.32;;;2.70;;
64140;SDS011;50436;50.618;7.932;2022-07-06T06:50:22;7.07;;;2.60;;
64140;SDS011;50436;50.618;7.932;2022-07-06T06:52:50;5.47;;;2.40;;
64140;SDS011;50436;50.618;7.932;2022-07-06T06:55:16;5.40;;;2.00;;
64140;SDS011;50436;50.618;7.932;2022-07-06T06:57:43;6.47;;;2.10;;
64140;SDS011;50436;50.618;7.932;2022-07-06T07:00:10;9.45;;;2.08;;
64140;SDS011;50436;50.618;7.932;2022-07-06T07:02:36;7.93;;;2.10;;
64140;SDS011;50436;50.618;7.932;2022-07-06T07:05:02;6.43;;;1.90;;
64140;SDS011;50436;50.618;7.932;2022-07-06T07:07:28;6.18;;;1.85;;
64140;SDS011;50436;50.618;7.932;2022-07-06T07:09:54;8.38;;;2.20;;
64140;SDS011;50436;50.618;7.932;2022-07-06T07:12:19;7.00;;;2.00;;
64140;SDS011;50436;50.618;7.932;2022-07-06T07:14:45;5.43;;;1.60;;
64140;SDS011;50436;50.618;7.932;2022-07-06T07:17:10;4.35;;;1.73;;
64140;SDS011;50436;50.618;7.932;2022-07-06T07:19:36;5.65;;;1.77;;
64140;SDS011;50436;50.618;7.932;2022-07-06T07:22:03;5.22;;;1.70;;
64140;SDS011;50436;50.618;7.932;2022-07-06T07:24:28;4.20;;;1.60;;
64140;SDS011;50436;50.618;7.932;2022-07-06T07:26:54;10.75;;;2.10;;
64140;SDS011;50436;50.618;7.932;2022-07-06T07:29:20;4.90;;;1.55;;
64140;SDS011;50436;50.618;7.932;2022-07-06T07:31:45;8.27;;;2.10;;
64140;SDS011;50436;50.618;7.932;2022-07-06T07:34:14;3.05;;;1.63;;
64140;SDS011;50436;50.618;7.932;2022-07-06T07:36:39;7.00;;;1.85;;
64140;SDS011;50436;50.618;7.932;2022-07-06T07:39:05;7.70;;;1.67;;
64140;SDS011;50436;50.618;7.932;2022-07-06T07:41:30;3.53;;;1.52;;
64140;SDS011;50436;50.618;7.932;2022-07-06T07:43:56;6.78;;;1.75;;
64140;SDS011;50436;50.618;7.932;2022-07-06T07:46:22;4.70;;;1.73;;
64140;SDS011;50436;50.618;7.932;2022-07-06T07:48:47;4.07;;;1.40;;
64140;SDS011;50436;50.618;7.932;2022-07-06T07:51:13;6.72;;;1.63;;
64140;SDS011;50436;50.618;7.932;2022-07-06T07:53:38;5.10;;;1.70;;
64140;SDS011;50436;50.618;7.932;2022-07-06T07:56:04;5.43;;;1.55;;
64140;SDS011;50436;50.618;7.932;2022-07-06T07:58:30;4.30;;;1.65;;
64140;SDS011;50436;50.618;7.932;2022-07-06T08:00:56;5.22;;;1.60;;
64140;SDS011;50436;50.618;7.932;2022-07-06T08:03:22;3.80;;;1.77;;
64140;SDS011;50436;50.618;7.932;2022-07-06T08:05:47;6.20;;;2.13;;
64140;SDS011;50436;50.618;7.932;2022-07-06T08:08:13;4.30;;;1.55;;
64140;SDS011;50436;50.618;7.932;2022-07-06T08:10:39;7.97;;;1.70;;
64140;SDS011;50436;50.618;7.932;2022-07-06T08:13:05;4.35;;;1.45;;
64140;SDS011;50436;50.618;7.932;2022-07-06T08:15:32;5.72;;;1.40;;
64140;SDS011;50436;50.618;7.932;2022-07-06T08:17:58;4.35;;;1.25;;
64140;SDS011;50436;50.618;7.932;2022-07-06T08:20:24;4.35;;;1.58;;
64140;SDS011;50436;50.618;7.932;2022-07-06T08:22:49;3.67;;;1.50;;
64140;SDS011;50436;50.618;7.932;2022-07-06T08:25:15;3.33;;;1.10;;
64140;SDS011;50436;50.618;7.932;2022-07-06T08:27:42;3.05;;;1.20;;
64140;SDS011;50436;50.618;7.932;2022-07-06T08:30:08;4.35;;;1.00;;
64140;SDS011;50436;50.618;7.932;2022-07-06T08:32:39;3.00;;;0.93;;
64140;SDS011;50436;50.618;7.932;2022-07-06T08:35:08;3.80;;;1.35;;
64140;SDS011;50436;50.618;7.932;2022-07-06T08:37:35;3.08;;;1.27;;
64140;SDS011;50436;50.618;7.932;2022-07-06T08:40:01;3.88;;;1.42;;
64140;SDS011;50436;50.618;7.932;2022-07-06T08:42:33;4.05;;;1.35;;
64140;SDS011;50436;50.618;7.932;2022-07-06T08:45:00;4.47;;;1.35;;
64140;SDS011;50436;50.618;7.932;2022-07-06T08:47:30;3.95;;;1.20;;
64140;SDS011;50436;50.618;7.932;2022-07-06T08:49:57;3.53;;;1.17;;
64140;SDS011;50436;50.618;7.932;2022-07-06T08:52:23;3.63;;;1.35;;
64140;SDS011;50436;50.618;7.932;2022-07-06T08:54:49;4.43;;;1.20;;
64140;SDS011;50436;50.618;7.932;2022-07-06T08:57:15;4.45;;;1.10;;
64140;SDS011;50436;50.618;7.932;2022-07-06T08:59:42;5.05;;;1.30;;
64140;SDS011;50436;50.618;7.932;2022-07-06T09:02:09;4.05;;;1.45;;
64140;SDS011;50436;50.618;7.932;2022-07-06T09:04:36;4.13;;;1.30;;
64140;SDS011;50436;50.618;7.932;2022-07-06T09:07:02;4.20;;;1.30;;
64140;SDS011;50436;50.618;7.932;2022-07-06T09:09:28;6.97;;;1.38;;
64140;SDS011;50436;50.618;7.932;2022-07-06T09:11:56;2.60;;;1.10;;
64140;SDS011;50436;50.618;7.932;2022-07-06T09:14:22;4.40;;;1.30;;
64140;SDS011;50436;50.618;7.932;2022-07-06T09:16:51;4.43;;;1.25;;
64140;SDS011;50436;50.618;7.932;2022-07-06T09:19:17;5.57;;;1.38;;
64140;SDS011;50436;50.618;7.932;2022-07-06T09:21:43;5.25;;;1.52;;
64140;SDS011;50436;50.618;7.932;2022-07-06T09:24:09;3.05;;;1.00;;
64140;SDS011;50436;50.618;7.932;2022-07-06T09:26:37;5.32;;;1.08;;
64140;SDS011;50436;50.618;7.932;2022-07-06T09:29:03;4.15;;;1.10;;
64140;SDS011;50436;50.618;7.932;2022-07-06T09:31:30;3.67;;;1.20;;
64140;SDS011;50436;50.618;7.932;2022-07-06T09:33:59;2.50;;;1.13;;
64140;SDS011;50436;50.618;7.932;2022-07-06T09:37:03;4.40;;;1.17;;
64140;SDS011;50436;50.618;7.932;2022-07-06T09:39:23;7.93;;;1.27;;
64140;SDS011;50436;50.618;7.932;2022-07-06T09:41:50;4.47;;;1.33;;
64140;SDS011;50436;50.618;7.932;2022-07-06T09:44:24;3.08;;;1.00;;
64140;SDS011;50436;50.618;7.932;2022-07-06T09:46:58;3.17;;;1.02;;
64140;SDS011;50436;50.618;7.932;2022-07-06T09:49:25;4.22;;;1.30;;
64140;SDS011;50436;50.618;7.932;2022-07-06T09:51:52;2.88;;;1.20;;
64140;SDS011;50436;50.618;7.932;2022-07-06T09:54:22;2.80;;;1.50;;
64140;SDS011;50436;50.618;7.932;2022-07-06T09:56:49;4.43;;;1.50;;
64140;SDS011;50436;50.618;7.932;2022-07-06T09:59:19;5.22;;;1.42;;
64140;SDS011;50436;50.618;7.932;2022-07-06T10:01:47;5.50;;;1.27;;
64140;SDS011;50436;50.618;7.932;2022-07-06T10:04:15;3.38;;;1.20;;
64140;SDS011;50436;50.618;7.932;2022-07-06T10:06:43;5.30;;;1.50;;
64140;SDS011;50436;50.618;7.932;2022-07-06T10:09:10;5.53;;;1.30;;
64140;SDS011;50436;50.618;7.932;2022-07-06T10:11:40;6.30;;;1.40;;
64140;SDS011;50436;50.618;7.932;2022-07-06T10:14:09;6.15;;;1.23;;
64140;SDS011;50436;50.618;7.932;2022-07-06T10:16:39;5.00;;;1.90;;
64140;SDS011;50436;50.618;7.932;2022-07-06T10:19:05;4.05;;;1.17;;
64140;SDS011;50436;50.618;7.932;2022-07-06T10:21:36;4.72;;;1.20;;
64140;SDS011;50436;50.618;7.932;2022-07-06T10:24:06;5.72;;;1.55;;
64140;SDS011;50436;50.618;7.932;2022-07-06T10:26:33;2.63;;;1.10;;
64140;SDS011;50436;50.618;7.932;2022-07-06T10:29:01;4.35;;;1.00;;
64140;SDS011;50436;50.618;7.932;2022-07-06T10:31:28;3.08;;;1.17;;
64140;SDS011;50436;50.618;7.932;2022-07-06T10:33:59;4.57;;;1.40;;
64140;SDS011;50436;50.618;7.932;2022-07-06T10:38:54;6.35;;;1.67;;
64140;SDS011;50436;50.618;7.932;2022-07-06T10:41:30;6.32;;;1.52;;
64140;SDS011;50436;50.618;7.932;2022-07-06T10:43:57;3.25;;;1.30;;
64140;SDS011;50436;50.618;7.932;2022-07-06T10:46:23;5.35;;;1.27;;
64140;SDS011;50436;50.618;7.932;2022-07-06T10:48:54;3.35;;;1.35;;
64140;SDS011;50436;50.618;7.932;2022-07-06T10:51:28;2.97;;;1.45;;
64140;SDS011;50436;50.618;7.932;2022-07-06T10:53:58;2.58;;;1.20;;
64140;SDS011;50436;50.618;7.932;2022-07-06T10:56:38;3.75;;;1.30;;
64140;SDS011;50436;50.618;7.932;2022-07-06T10:59:12;4.00;;;1.20;;
64140;SDS011;50436;50.618;7.932;2022-07-06T11:01:39;3.97;;;1.05;;
64140;SDS011;50436;50.618;7.932;2022-07-06T11:04:05;4.05;;;1.27;;
64140;SDS011;50436;50.618;7.932;2022-07-06T11:06:33;4.18;;;1.30;;
64140;SDS011;50436;50.618;7.932;2022-07-06T11:09:05;4.95;;;1.20;;
64140;SDS011;50436;50.618;7.932;2022-07-06T11:14:05;4.35;;;1.40;;
64140;SDS011;50436;50.618;7.932;2022-07-06T11:16:36;4.53;;;1.75;;
64140;SDS011;50436;50.618;7.932;2022-07-06T11:19:15;7.53;;;1.13;;
64140;SDS011;50436;50.618;7.932;2022-07-06T11:21:48;3.58;;;1.25;;
64140;SDS011;50436;50.618;7.932;2022-07-06T11:24:20;3.25;;;1.20;;
64140;SDS011;50436;50.618;7.932;2022-07-06T11:26:47;2.80;;;1.10;;
64140;SDS011;50436;50.618;7.932;2022-07-06T11:29:14;4.30;;;1.10;;
64140;SDS011;50436;50.618;7.932;2022-07-06T11:31:43;3.47;;;1.15;;
64140;SDS011;50436;50.618;7.932;2022-07-06T11:34:10;3.17;;;0.98;;
64140;SDS011;50436;50.618;7.932;2022-07-06T11:36:39;4.93;;;1.20;;
64140;SDS011;50436;50.618;7.932;2022-07-06T11:39:06;5.68;;;1.48;;
64140;SDS011;50436;50.618;7.932;2022-07-06T11:41:34;4.95;;;1.20;;
64140;SDS011;50436;50.618;7.932;2022-07-06T11:44:00;4.22;;;1.25;;
64140;SDS011;50436;50.618;7.932;2022-07-06T11:46:27;3.10;;;1.10;;
64140;SDS011;50436;50.618;7.932;2022-07-06T11:48:55;3.75;;;1.20;;
64140;SDS011;50436;50.618;7.932;2022-07-06T11:53:53;5.00;;;1.23;;
64140;SDS011;50436;50.618;7.932;2022-07-06T11:56:21;2.78;;;1.05;;
64140;SDS011;50436;50.618;7.932;2022-07-06T11:58:50;3.20;;;1.08;;
64140;SDS011;50436;50.618;7.932;2022-07-06T12:01:17;3.95;;;1.25;;
64140;SDS011;50436;50.618;7.932;2022-07-06T12:03:43;4.90;;;2.28;;
64140;SDS011;50436;50.618;7.932;2022-07-06T12:06:14;2.42;;;1.17;;
64140;SDS011;50436;50.618;7.932;2022-07-06T12:08:47;4.80;;;1.40;;
64140;SDS011;50436;50.618;7.932;2022-07-06T12:11:27;4.03;;;1.00;;
64140;SDS011;50436;50.618;7.932;2022-07-06T12:13:58;3.33;;;1.13;;
64140;SDS011;50436;50.618;7.932;2022-07-06T12:16:33;5.03;;;1.23;;
64140;SDS011;50436;50.618;7.932;2022-07-06T12:19:01;2.97;;;1.00;;
64140;SDS011;50436;50.618;7.932;2022-07-06T12:21:31;4.10;;;1.20;;
64140;SDS011;50436;50.618;7.932;2022-07-06T12:23:58;3.53;;;1.10;;
64140;SDS011;50436;50.618;7.932;2022-07-06T12:26:25;5.57;;;1.13;;
64140;SDS011;50436;50.618;7.932;2022-07-06T12:29:03;2.58;;;1.00;;
64140;SDS011;50436;50.618;7.932;2022-07-06T12:31:34;2.78;;;1.05;;
64140;SDS011;50436;50.618;7.932;2022-07-06T12:34:02;4.32;;;1.00;;
64140;SDS011;50436;50.618;7.932;2022-07-06T12:36:28;3.33;;;1.10;;
64140;SDS011;50436;50.618;7.932;2022-07-06T12:38:54;4.65;;;1.08;;
64140;SDS011;50436;50.618;7.932;2022-07-06T12:41:24;3.95;;;1.02;;
64140;SDS011;50436;50.618;7.932;2022-07-06T12:44:07;2.40;;;0.90;;
64140;SDS011;50436;50.618;7.932;2022-07-06T12:46:35;3.53;;;1.00;;
64140;SDS011;50436;50.618;7.932;2022-07-06T12:49:13;2.85;;;1.23;;
64140;SDS011;50436;50.618;7.932;2022-07-06T12:54:16;3.15;;;1.10;;
64140;SDS011;50436;50.618;7.932;2022-07-06T12:59:45;6.13;;;1.10;;
64140;SDS011;50436;50.618;7.932;2022-07-06T13:02:17;3.60;;;0.97;;
64140;SDS011;50436;50.618;7.932;2022-07-06T13:04:43;3.22;;;1.00;;
64140;SDS011;50436;50.618;7.932;2022-07-06T13:07:17;2.22;;;0.90;;
64140;SDS011;50436;50.618;7.932;2022-07-06T13:09:46;4.60;;;1.10;;
64140;SDS011;50436;50.618;7.932;2022-07-06T13:12:12;5.68;;;1.38;;
64140;SDS011;50436;50.618;7.932;2022-07-06T13:14:37;3.08;;;1.02;;
64140;SDS011;50436;50.618;7.932;2022-07-06T13:17:03;3.13;;;1.15;;
64140;SDS011;50436;50.618;7.932;2022-07-06T13:19:28;4.70;;;1.05;;
64140;SDS011;50436;50.618;7.932;2022-07-06T13:21:54;2.95;;;1.00;;
64140;SDS011;50436;50.618;7.932;2022-07-06T13:24:19;3.92;;;1.13;;
64140;SDS011;50436;50.618;7.932;2022-07-06T13:26:45;3.88;;;1.20;;
64140;SDS011;50436;50.618;7.932;2022-07-06T13:29:11;3.40;;;1.00;;
64140;SDS011;50436;50.618;7.932;2022-07-06T13:31:38;2.58;;;1.10;;
64140;SDS011;50436;50.618;7.932;2022-07-06T13:34:04;3.45;;;1.10;;
64140;SDS011;50436;50.618;7.932;2022-07-06T13:36:30;2.95;;;1.20;;
64140;SDS011;50436;50.618;7.932;2022-07-06T13:38:56;3.50;;;0.88;;
64140;SDS011;50436;50.618;7.932;2022-07-06T13:41:22;4.18;;;1.40;;
64140;SDS011;50436;50.618;7.932;2022-07-06T13:43:48;4.20;;;1.10;;
64140;SDS011;50436;50.618;7.932;2022-07-06T13:46:13;4.30;;;1.00;;
64140;SDS011;50436;50.618;7.932;2022-07-06T13:48:39;3.55;;;1.20;;
64140;SDS011;50436;50.618;7.932;2022-07-06T13:51:04;3.42;;;1.10;;
64140;SDS011;50436;50.618;7.932;2022-07-06T13:53:29;5.95;;;1.20;;
64140;SDS011;50436;50.618;7.932;2022-07-06T13:55:56;5.72;;;1.08;;
64140;SDS011;50436;50.618;7.932;2022-07-06T13:58:22;4.60;;;1.00;;
64140;SDS011;50436;50.618;7.932;2022-07-06T14:00:47;4.43;;;1.10;;
64140;SDS011;50436;50.618;7.932;2022-07-06T14:03:13;4.53;;;1.23;;
64140;SDS011;50436;50.618;7.932;2022-07-06T14:05:38;5.03;;;1.23;;
64140;SDS011;50436;50.618;7.932;2022-07-06T14:08:04;5.55;;;1.20;;
64140;SDS011;50436;50.618;7.932;2022-07-06T14:10:30;4.13;;;1.20;;
64140;SDS011;50436;50.618;7.932;2022-07-06T14:12:55;4.32;;;1.35;;
64140;SDS011;50436;50.618;7.932;2022-07-06T14:15:21;9.05;;;1.27;;
64140;SDS011;50436;50.618;7.932;2022-07-06T14:17:47;4.28;;;1.20;;
64140;SDS011;50436;50.618;7.932;2022-07-06T14:20:13;5.88;;;1.50;;
64140;SDS011;50436;50.618;7.932;2022-07-06T14:22:39;5.20;;;1.20;;
64140;SDS011;50436;50.618;7.932;2022-07-06T14:25:06;3.67;;;1.45;;
64140;SDS011;50436;50.618;7.932;2022-07-06T14:27:32;5.10;;;1.10;;
64140;SDS011;50436;50.618;7.932;2022-07-06T14:29:58;2.80;;;1.00;;
64140;SDS011;50436;50.618;7.932;2022-07-06T14:32:24;5.13;;;1.13;;
64140;SDS011;50436;50.618;7.932;2022-07-06T14:34:50;3.30;;;1.10;;
64140;SDS011;50436;50.618;7.932;2022-07-06T14:37:15;3.20;;;0.93;;
64140;SDS011;50436;50.618;7.932;2022-07-06T14:39:41;2.78;;;0.90;;
64140;SDS011;50436;50.618;7.932;2022-07-06T14:42:07;3.15;;;0.90;;
64140;SDS011;50436;50.618;7.932;2022-07-06T14:44:34;7.55;;;0.90;;
64140;SDS011;50436;50.618;7.932;2022-07-06T14:46:59;4.50;;;1.08;;
64140;SDS011;50436;50.618;7.932;2022-07-06T14:49:24;4.78;;;1.02;;
64140;SDS011;50436;50.618;7.932;2022-07-06T14:51:50;5.63;;;1.40;;
64140;SDS011;50436;50.618;7.932;2022-07-06T14:54:16;2.92;;;1.08;;
64140;SDS011;50436;50.618;7.932;2022-07-06T14:56:42;3.75;;;1.00;;
64140;SDS011;50436;50.618;7.932;2022-07-06T14:59:08;3.58;;;1.00;;
64140;SDS011;50436;50.618;7.932;2022-07-06T15:01:34;5.15;;;1.08;;